sensor_id;sensor_type;location;lat;lon;timestamp;P1;durP1;ratioP1;P2;durP2;ratioP2
26822;SDS011;14852;51.910;8.878;2023-03-12T00:00:48;5.78;;;3.30;;
26822;SDS011;14852;51.910;8.878;2023-03-12T00:03:15;5.35;;;3.03;;
26822;SDS011;14852;51.910;8.878;2023-03-12T00:05:41;5.18;;;3.30;;
26822;SDS011;14852;51.910;8.878;2023-03-12T00:08:08;7.40;;;4.28;;
26822;SDS011;14852;51.910;8.878;2023-03-12T00:10:34;5.20;;;3.83;;
26822;SDS011;14852;51.910;8.878;2023-03-12T00:13:04;5.45;;;3.95;;
26822;SDS011;14852;51.910;8.878;2023-03-12T00:15:30;6.03;;;3.90;;
26822;SDS011;14852;51.910;8.878;2023-03-12T00:17:56;4.97;;;3.03;;
26822;SDS011;14852;51.910;8.878;2023-03-12T00:20:22;4.88;;;2.88;;
26822;SDS011;14852;51.910;8.878;2023-03-12T00:22:48;4.75;;;2.60;;
26822;SDS011;14852;51.910;8.878;2023-03-12T00:25:15;7.82;;;2.53;;
26822;SDS011;14852;51.910;8.878;2023-03-12T00:27:41;9.75;;;3.58;;
26822;SDS011;14852;51.910;8.878;2023-03-12T00:30:08;6.20;;;3.45;;
26822;SDS011;14852;51.910;8.878;2023-03-12T00:32:35;4.70;;;3.30;;
26822;SDS011;14852;51.910;8.878;2023-03-12T00:35:02;3.72;;;2.45;;
26822;SDS011;14852;51.910;8.878;2023-03-12T00:37:29;5.05;;;2.95;;
26822;SDS011;14852;51.910;8.878;2023-03-12T00:39:57;5.18;;;3.03;;
26822;SDS011;14852;51.910;8.878;2023-03-12T00:42:23;5.80;;;2.78;;
26822;SDS011;14852;51.910;8.878;2023-03-12T00:44:49;5.57;;;2.80;;
26822;SDS011;14852;51.910;8.878;2023-03-12T00:47:15;7.78;;;3.45;;
26822;SDS011;14852;51.910;8.878;2023-03-12T00:49:40;5.88;;;2.70;;
26822;SDS011;14852;51.910;8.878;2023-03-12T00:52:06;4.43;;;2.78;;
26822;SDS011;14852;51.910;8.878;2023-03-12T00:54:32;6.38;;;3.10;;
26822;SDS011;14852;51.910;8.878;2023-03-12T00:56:58;4.05;;;2.58;;
26822;SDS011;14852;51.910;8.878;2023-03-12T00:59:24;3.22;;;2.35;;
26822;SDS011;14852;51.910;8.878;2023-03-12T01:01:49;6.00;;;2.88;;
26822;SDS011;14852;51.910;8.878;2023-03-12T01:04:15;5.25;;;2.70;;
26822;SDS011;14852;51.910;8.878;2023-03-12T01:06:41;3.80;;;2.60;;
26822;SDS011;14852;51.910;8.878;2023-03-12T01:09:08;8.32;;;3.17;;
26822;SDS011;14852;51.910;8.878;2023-03-12T01:11:34;3.10;;;2.50;;
26822;SDS011;14852;51.910;8.878;2023-03-12T01:14:05;3.90;;;2.30;;
26822;SDS011;14852;51.910;8.878;2023-03-12T01:16:32;5.03;;;2.67;;
26822;SDS011;14852;51.910;8.878;2023-03-12T01:18:59;8.48;;;3.60;;
26822;SDS011;14852;51.910;8.878;2023-03-12T01:21:27;3.25;;;2.40;;
26822;SDS011;14852;51.910;8.878;2023-03-12T01:23:54;3.10;;;2.40;;
26822;SDS011;14852;51.910;8.878;2023-03-12T01:26:21;3.38;;;2.35;;
26822;SDS011;14852;51.910;8.878;2023-03-12T01:28:47;3.05;;;2.38;;
26822;SDS011;14852;51.910;8.878;2023-03-12T01:31:14;4.40;;;2.20;;
26822;SDS011;14852;51.910;8.878;2023-03-12T01:33:49;6.35;;;2.67;;
26822;SDS011;14852;51.910;8.878;2023-03-12T01:36:20;6.28;;;2.60;;
26822;SDS011;14852;51.910;8.878;2023-03-12T01:38:53;4.38;;;2.67;;
26822;SDS011;14852;51.910;8.878;2023-03-12T01:41:21;4.88;;;2.35;;
26822;SDS011;14852;51.910;8.878;2023-03-12T01:43:49;5.78;;;2.90;;
26822;SDS011;14852;51.910;8.878;2023-03-12T01:46:26;4.68;;;2.58;;
26822;SDS011;14852;51.910;8.878;2023-03-12T01:48:58;5.90;;;2.45;;
26822;SDS011;14852;51.910;8.878;2023-03-12T01:51:39;3.85;;;2.63;;
26822;SDS011;14852;51.910;8.878;2023-03-12T01:56:58;6.28;;;2.55;;
26822;SDS011;14852;51.910;8.878;2023-03-12T01:59:31;3.65;;;2.38;;
26822;SDS011;14852;51.910;8.878;2023-03-12T02:02:05;3.15;;;2.15;;
26822;SDS011;14852;51.910;8.878;2023-03-12T02:04:33;3.72;;;2.50;;
26822;SDS011;14852;51.910;8.878;2023-03-12T02:07:02;3.65;;;2.25;;
26822;SDS011;14852;51.910;8.878;2023-03-12T02:09:32;5.88;;;2.80;;
26822;SDS011;14852;51.910;8.878;2023-03-12T02:12:01;4.25;;;2.42;;
26822;SDS011;14852;51.910;8.878;2023-03-12T02:14:27;5.13;;;2.40;;
26822;SDS011;14852;51.910;8.878;2023-03-12T02:16:55;4.72;;;2.97;;
26822;SDS011;14852;51.910;8.878;2023-03-12T02:19:28;4.35;;;2.80;;
26822;SDS011;14852;51.910;8.878;2023-03-12T02:22:06;4.00;;;2.20;;
26822;SDS011;14852;51.910;8.878;2023-03-12T02:27:29;4.65;;;2.50;;
26822;SDS011;14852;51.910;8.878;2023-03-12T02:29:58;3.75;;;2.58;;
26822;SDS011;14852;51.910;8.878;2023-03-12T02:32:27;3.95;;;2.15;;
26822;SDS011;14852;51.910;8.878;2023-03-12T02:35:08;3.17;;;2.20;;
26822;SDS011;14852;51.910;8.878;2023-03-12T02:37:35;4.57;;;2.70;;
26822;SDS011;14852;51.910;8.878;2023-03-12T02:40:04;3.67;;;2.47;;
26822;SDS011;14852;51.910;8.878;2023-03-12T02:42:55;4.38;;;2.60;;
26822;SDS011;14852;51.910;8.878;2023-03-12T02:45:22;4.47;;;2.55;;
26822;SDS011;14852;51.910;8.878;2023-03-12T02:47:50;4.47;;;3.10;;
26822;SDS011;14852;51.910;8.878;2023-03-12T02:50:15;4.30;;;2.83;;
26822;SDS011;14852;51.910;8.878;2023-03-12T02:52:41;5.93;;;2.67;;
26822;SDS011;14852;51.910;8.878;2023-03-12T02:55:08;4.05;;;2.80;;
26822;SDS011;14852;51.910;8.878;2023-03-12T02:57:34;4.35;;;2.45;;
26822;SDS011;14852;51.910;8.878;2023-03-12T03:00:04;4.13;;;2.88;;
26822;SDS011;14852;51.910;8.878;2023-03-12T03:02:36;4.35;;;2.47;;
26822;SDS011;14852;51.910;8.878;2023-03-12T03:05:04;5.32;;;2.80;;
26822;SDS011;14852;51.910;8.878;2023-03-12T03:07:30;4.30;;;2.65;;
26822;SDS011;14852;51.910;8.878;2023-03-12T03:09:56;4.35;;;3.08;;
26822;SDS011;14852;51.910;8.878;2023-03-12T03:12:32;4.15;;;2.60;;
26822;SDS011;14852;51.910;8.878;2023-03-12T03:15:01;3.20;;;2.65;;
26822;SDS011;14852;51.910;8.878;2023-03-12T03:17:28;5.35;;;2.83;;
26822;SDS011;14852;51.910;8.878;2023-03-12T03:19:54;6.55;;;2.50;;
26822;SDS011;14852;51.910;8.878;2023-03-12T03:22:20;5.75;;;2.78;;
26822;SDS011;14852;51.910;8.878;2023-03-12T03:24:47;3.97;;;2.45;;
26822;SDS011;14852;51.910;8.878;2023-03-12T03:27:13;5.65;;;2.50;;
26822;SDS011;14852;51.910;8.878;2023-03-12T03:29:39;5.07;;;2.65;;
26822;SDS011;14852;51.910;8.878;2023-03-12T03:32:06;5.75;;;2.60;;
26822;SDS011;14852;51.910;8.878;2023-03-12T03:34:32;5.35;;;2.50;;
26822;SDS011;14852;51.910;8.878;2023-03-12T03:36:58;3.83;;;2.67;;
26822;SDS011;14852;51.910;8.878;2023-03-12T03:39:24;2.83;;;2.10;;
26822;SDS011;14852;51.910;8.878;2023-03-12T03:41:50;4.97;;;2.53;;
26822;SDS011;14852;51.910;8.878;2023-03-12T03:44:18;3.88;;;2.60;;
26822;SDS011;14852;51.910;8.878;2023-03-12T03:46:44;4.32;;;2.47;;
26822;SDS011;14852;51.910;8.878;2023-03-12T03:49:11;5.10;;;2.70;;
26822;SDS011;14852;51.910;8.878;2023-03-12T03:51:39;4.45;;;2.85;;
26822;SDS011;14852;51.910;8.878;2023-03-12T03:54:11;6.35;;;3.10;;
26822;SDS011;14852;51.910;8.878;2023-03-12T03:56:40;3.03;;;2.40;;
26822;SDS011;14852;51.910;8.878;2023-03-12T03:59:06;3.63;;;2.70;;
26822;SDS011;14852;51.910;8.878;2023-03-12T04:01:35;4.70;;;3.03;;
26822;SDS011;14852;51.910;8.878;2023-03-12T04:04:01;4.43;;;2.90;;
26822;SDS011;14852;51.910;8.878;2023-03-12T04:06:30;4.50;;;2.75;;
26822;SDS011;14852;51.910;8.878;2023-03-12T04:08:56;4.82;;;3.50;;
26822;SDS011;14852;51.910;8.878;2023-03-12T04:11:23;4.82;;;3.15;;
26822;SDS011;14852;51.910;8.878;2023-03-12T04:13:51;4.88;;;2.97;;
26822;SDS011;14852;51.910;8.878;2023-03-12T04:16:19;5.50;;;2.58;;
26822;SDS011;14852;51.910;8.878;2023-03-12T04:18:47;4.60;;;2.83;;
26822;SDS011;14852;51.910;8.878;2023-03-12T04:21:14;7.00;;;4.05;;
26822;SDS011;14852;51.910;8.878;2023-03-12T04:23:41;6.13;;;3.38;;
26822;SDS011;14852;51.910;8.878;2023-03-12T04:26:09;3.83;;;2.80;;
26822;SDS011;14852;51.910;8.878;2023-03-12T04:28:36;5.30;;;2.80;;
26822;SDS011;14852;51.910;8.878;2023-03-12T04:31:04;4.55;;;2.58;;
26822;SDS011;14852;51.910;8.878;2023-03-12T04:36:04;4.95;;;2.92;;
26822;SDS011;14852;51.910;8.878;2023-03-12T04:38:32;4.40;;;2.83;;
26822;SDS011;14852;51.910;8.878;2023-03-12T04:41:06;3.97;;;2.40;;
26822;SDS011;14852;51.910;8.878;2023-03-12T04:43:43;3.83;;;2.67;;
26822;SDS011;14852;51.910;8.878;2023-03-12T04:46:09;7.72;;;3.72;;
26822;SDS011;14852;51.910;8.878;2023-03-12T04:48:37;5.45;;;2.90;;
26822;SDS011;14852;51.910;8.878;2023-03-12T04:51:03;4.80;;;2.83;;
26822;SDS011;14852;51.910;8.878;2023-03-12T04:53:29;4.72;;;2.70;;
26822;SDS011;14852;51.910;8.878;2023-03-12T04:55:56;3.88;;;3.00;;
26822;SDS011;14852;51.910;8.878;2023-03-12T04:58:22;4.45;;;2.88;;
26822;SDS011;14852;51.910;8.878;2023-03-12T05:00:48;4.63;;;3.20;;
26822;SDS011;14852;51.910;8.878;2023-03-12T05:03:15;6.78;;;3.10;;
26822;SDS011;14852;51.910;8.878;2023-03-12T05:05:43;4.28;;;3.15;;
26822;SDS011;14852;51.910;8.878;2023-03-12T05:08:09;8.00;;;3.30;;
26822;SDS011;14852;51.910;8.878;2023-03-12T05:10:35;6.38;;;4.55;;
26822;SDS011;14852;51.910;8.878;2023-03-12T05:13:01;4.40;;;3.33;;
26822;SDS011;14852;51.910;8.878;2023-03-12T05:15:28;4.72;;;3.40;;
26822;SDS011;14852;51.910;8.878;2023-03-12T05:17:55;6.30;;;3.67;;
26822;SDS011;14852;51.910;8.878;2023-03-12T05:20:21;5.43;;;3.78;;
26822;SDS011;14852;51.910;8.878;2023-03-12T05:22:47;4.13;;;3.10;;
26822;SDS011;14852;51.910;8.878;2023-03-12T05:25:13;6.00;;;3.92;;
26822;SDS011;14852;51.910;8.878;2023-03-12T05:27:39;6.35;;;5.28;;
26822;SDS011;14852;51.910;8.878;2023-03-12T05:30:06;7.85;;;4.88;;
26822;SDS011;14852;51.910;8.878;2023-03-12T05:32:35;5.85;;;4.55;;
26822;SDS011;14852;51.910;8.878;2023-03-12T05:35:01;8.43;;;5.28;;
26822;SDS011;14852;51.910;8.878;2023-03-12T05:37:27;7.40;;;5.57;;
26822;SDS011;14852;51.910;8.878;2023-03-12T05:39:53;6.80;;;4.85;;
26822;SDS011;14852;51.910;8.878;2023-03-12T05:42:19;7.95;;;5.35;;
26822;SDS011;14852;51.910;8.878;2023-03-12T05:44:46;6.68;;;4.93;;
26822;SDS011;14852;51.910;8.878;2023-03-12T05:47:16;10.30;;;6.13;;
26822;SDS011;14852;51.910;8.878;2023-03-12T05:49:42;8.23;;;6.03;;
26822;SDS011;14852;51.910;8.878;2023-03-12T05:52:08;11.45;;;6.03;;
26822;SDS011;14852;51.910;8.878;2023-03-12T05:54:35;8.15;;;6.00;;
26822;SDS011;14852;51.910;8.878;2023-03-12T05:57:02;9.43;;;6.50;;
26822;SDS011;14852;51.910;8.878;2023-03-12T05:59:28;12.27;;;7.05;;
26822;SDS011;14852;51.910;8.878;2023-03-12T06:01:55;10.20;;;8.55;;
26822;SDS011;14852;51.910;8.878;2023-03-12T06:04:21;13.00;;;7.72;;
26822;SDS011;14852;51.910;8.878;2023-03-12T06:06:47;10.88;;;8.05;;
26822;SDS011;14852;51.910;8.878;2023-03-12T06:09:13;12.07;;;6.80;;
26822;SDS011;14852;51.910;8.878;2023-03-12T06:11:40;10.32;;;6.72;;
26822;SDS011;14852;51.910;8.878;2023-03-12T06:14:05;9.98;;;7.18;;
26822;SDS011;14852;51.910;8.878;2023-03-12T06:16:33;11.25;;;6.97;;
26822;SDS011;14852;51.910;8.878;2023-03-12T06:19:00;8.45;;;5.60;;
26822;SDS011;14852;51.910;8.878;2023-03-12T06:21:27;9.02;;;5.68;;
26822;SDS011;14852;51.910;8.878;2023-03-12T06:23:56;9.35;;;5.38;;
26822;SDS011;14852;51.910;8.878;2023-03-12T06:26:28;7.28;;;5.05;;
26822;SDS011;14852;51.910;8.878;2023-03-12T06:28:54;8.02;;;5.53;;
26822;SDS011;14852;51.910;8.878;2023-03-12T06:31:20;7.72;;;4.95;;
26822;SDS011;14852;51.910;8.878;2023-03-12T06:33:47;6.35;;;4.95;;
26822;SDS011;14852;51.910;8.878;2023-03-12T06:36:13;7.93;;;4.97;;
26822;SDS011;14852;51.910;8.878;2023-03-12T06:38:39;10.82;;;5.50;;
26822;SDS011;14852;51.910;8.878;2023-03-12T06:41:06;8.63;;;4.97;;
26822;SDS011;14852;51.910;8.878;2023-03-12T06:43:36;8.05;;;5.53;;
26822;SDS011;14852;51.910;8.878;2023-03-12T06:46:03;6.07;;;5.07;;
26822;SDS011;14852;51.910;8.878;2023-03-12T06:48:31;5.78;;;4.43;;
26822;SDS011;14852;51.910;8.878;2023-03-12T06:51:00;9.18;;;5.60;;
26822;SDS011;14852;51.910;8.878;2023-03-12T06:53:27;6.30;;;4.65;;
26822;SDS011;14852;51.910;8.878;2023-03-12T06:55:53;10.35;;;6.63;;
26822;SDS011;14852;51.910;8.878;2023-03-12T06:58:19;6.72;;;5.68;;
26822;SDS011;14852;51.910;8.878;2023-03-12T07:00:45;6.18;;;4.57;;
26822;SDS011;14852;51.910;8.878;2023-03-12T07:03:11;5.85;;;4.72;;
26822;SDS011;14852;51.910;8.878;2023-03-12T07:05:36;6.93;;;5.30;;
26822;SDS011;14852;51.910;8.878;2023-03-12T07:08:02;7.22;;;5.15;;
26822;SDS011;14852;51.910;8.878;2023-03-12T07:10:28;8.60;;;5.68;;
26822;SDS011;14852;51.910;8.878;2023-03-12T07:12:55;6.70;;;5.45;;
26822;SDS011;14852;51.910;8.878;2023-03-12T07:15:21;7.22;;;5.13;;
26822;SDS011;14852;51.910;8.878;2023-03-12T07:17:47;9.25;;;5.22;;
26822;SDS011;14852;51.910;8.878;2023-03-12T07:20:13;7.20;;;4.80;;
26822;SDS011;14852;51.910;8.878;2023-03-12T07:22:39;6.78;;;4.90;;
26822;SDS011;14852;51.910;8.878;2023-03-12T07:25:05;8.27;;;5.40;;
26822;SDS011;14852;51.910;8.878;2023-03-12T07:27:31;6.65;;;5.95;;
26822;SDS011;14852;51.910;8.878;2023-03-12T07:29:57;9.90;;;6.47;;
26822;SDS011;14852;51.910;8.878;2023-03-12T07:32:23;7.25;;;6.30;;
26822;SDS011;14852;51.910;8.878;2023-03-12T07:34:49;11.15;;;5.82;;
26822;SDS011;14852;51.910;8.878;2023-03-12T07:37:14;7.75;;;5.75;;
26822;SDS011;14852;51.910;8.878;2023-03-12T07:39:40;7.88;;;5.85;;
26822;SDS011;14852;51.910;8.878;2023-03-12T07:42:07;8.98;;;6.65;;
26822;SDS011;14852;51.910;8.878;2023-03-12T07:44:34;9.27;;;6.45;;
26822;SDS011;14852;51.910;8.878;2023-03-12T07:47:01;10.45;;;5.88;;
26822;SDS011;14852;51.910;8.878;2023-03-12T07:49:26;8.80;;;6.32;;
26822;SDS011;14852;51.910;8.878;2023-03-12T07:51:52;8.82;;;4.97;;
26822;SDS011;14852;51.910;8.878;2023-03-12T07:54:19;6.82;;;4.82;;
26822;SDS011;14852;51.910;8.878;2023-03-12T07:56:44;5.55;;;4.40;;
26822;SDS011;14852;51.910;8.878;2023-03-12T07:59:10;5.95;;;4.80;;
26822;SDS011;14852;51.910;8.878;2023-03-12T08:01:36;11.43;;;4.43;;
26822;SDS011;14852;51.910;8.878;2023-03-12T08:04:02;7.60;;;4.45;;
26822;SDS011;14852;51.910;8.878;2023-03-12T08:06:28;5.60;;;4.00;;
26822;SDS011;14852;51.910;8.878;2023-03-12T08:08:54;4.85;;;3.92;;
26822;SDS011;14852;51.910;8.878;2023-03-12T08:11:19;9.70;;;5.38;;
26822;SDS011;14852;51.910;8.878;2023-03-12T08:13:45;8.30;;;4.47;;
26822;SDS011;14852;51.910;8.878;2023-03-12T08:16:11;5.85;;;4.13;;
26822;SDS011;14852;51.910;8.878;2023-03-12T08:18:38;6.20;;;3.40;;
26822;SDS011;14852;51.910;8.878;2023-03-12T08:21:07;4.45;;;3.13;;
26822;SDS011;14852;51.910;8.878;2023-03-12T08:23:33;5.53;;;3.40;;
26822;SDS011;14852;51.910;8.878;2023-03-12T08:25:59;3.40;;;2.70;;
26822;SDS011;14852;51.910;8.878;2023-03-12T08:28:25;4.05;;;2.90;;
26822;SDS011;14852;51.910;8.878;2023-03-12T08:30:52;5.40;;;2.85;;
26822;SDS011;14852;51.910;8.878;2023-03-12T08:33:20;2.85;;;2.13;;
26822;SDS011;14852;51.910;8.878;2023-03-12T08:35:47;3.88;;;2.05;;
26822;SDS011;14852;51.910;8.878;2023-03-12T08:38:13;3.95;;;2.28;;
26822;SDS011;14852;51.910;8.878;2023-03-12T08:40:39;4.78;;;2.30;;
26822;SDS011;14852;51.910;8.878;2023-03-12T08:43:05;6.05;;;2.33;;
26822;SDS011;14852;51.910;8.878;2023-03-12T08:45:34;7.32;;;2.17;;
26822;SDS011;14852;51.910;8.878;2023-03-12T08:48:01;5.28;;;2.45;;
26822;SDS011;14852;51.910;8.878;2023-03-12T08:50:28;3.60;;;2.60;;
26822;SDS011;14852;51.910;8.878;2023-03-12T08:52:56;3.45;;;2.08;;
26822;SDS011;14852;51.910;8.878;2023-03-12T08:55:23;2.40;;;1.90;;
26822;SDS011;14852;51.910;8.878;2023-03-12T08:57:54;3.63;;;2.35;;
26822;SDS011;14852;51.910;8.878;2023-03-12T09:00:20;3.72;;;2.17;;
26822;SDS011;14852;51.910;8.878;2023-03-12T09:02:46;3.70;;;2.08;;
26822;SDS011;14852;51.910;8.878;2023-03-12T09:05:13;5.30;;;1.92;;
26822;SDS011;14852;51.910;8.878;2023-03-12T09:07:40;5.22;;;2.05;;
26822;SDS011;14852;51.910;8.878;2023-03-12T09:10:06;5.85;;;2.20;;
26822;SDS011;14852;51.910;8.878;2023-03-12T09:12:32;3.85;;;2.17;;
26822;SDS011;14852;51.910;8.878;2023-03-12T09:14:58;5.43;;;2.42;;
26822;SDS011;14852;51.910;8.878;2023-03-12T09:17:24;3.60;;;2.25;;
26822;SDS011;14852;51.910;8.878;2023-03-12T09:19:49;4.00;;;2.38;;
26822;SDS011;14852;51.910;8.878;2023-03-12T09:22:15;3.65;;;2.03;;
26822;SDS011;14852;51.910;8.878;2023-03-12T09:24:41;3.60;;;2.08;;
26822;SDS011;14852;51.910;8.878;2023-03-12T09:27:07;3.92;;;2.13;;
26822;SDS011;14852;51.910;8.878;2023-03-12T09:29:33;4.93;;;2.03;;
26822;SDS011;14852;51.910;8.878;2023-03-12T09:32:00;7.03;;;2.50;;
26822;SDS011;14852;51.910;8.878;2023-03-12T09:34:26;6.13;;;2.78;;
26822;SDS011;14852;51.910;8.878;2023-03-12T09:36:51;4.25;;;2.35;;
26822;SDS011;14852;51.910;8.878;2023-03-12T09:39:17;7.47;;;2.55;;
26822;SDS011;14852;51.910;8.878;2023-03-12T09:41:45;3.75;;;2.30;;
26822;SDS011;14852;51.910;8.878;2023-03-12T09:44:18;5.05;;;3.17;;
26822;SDS011;14852;51.910;8.878;2023-03-12T09:47:08;5.40;;;2.40;;
26822;SDS011;14852;51.910;8.878;2023-03-12T09:49:52;3.67;;;2.60;;
26822;SDS011;14852;51.910;8.878;2023-03-12T09:52:31;4.60;;;3.20;;
26822;SDS011;14852;51.910;8.878;2023-03-12T09:57:41;4.32;;;2.90;;
26822;SDS011;14852;51.910;8.878;2023-03-12T10:00:13;5.97;;;3.05;;
26822;SDS011;14852;51.910;8.878;2023-03-12T10:05:38;7.13;;;4.47;;
26822;SDS011;14852;51.910;8.878;2023-03-12T10:16:28;6.65;;;4.18;;
26822;SDS011;14852;51.910;8.878;2023-03-12T10:19:13;7.82;;;4.53;;
26822;SDS011;14852;51.910;8.878;2023-03-12T10:21:55;6.97;;;4.78;;
26822;SDS011;14852;51.910;8.878;2023-03-12T10:24:53;5.95;;;4.10;;
26822;SDS011;14852;51.910;8.878;2023-03-12T10:27:37;7.55;;;4.40;;
26822;SDS011;14852;51.910;8.878;2023-03-12T10:30:12;6.60;;;4.32;;
26822;SDS011;14852;51.910;8.878;2023-03-12T10:32:50;6.60;;;3.80;;
26822;SDS011;14852;51.910;8.878;2023-03-12T10:35:24;6.38;;;3.72;;
26822;SDS011;14852;51.910;8.878;2023-03-12T10:37:58;8.13;;;4.20;;
26822;SDS011;14852;51.910;8.878;2023-03-12T10:40:27;8.50;;;4.70;;
26822;SDS011;14852;51.910;8.878;2023-03-12T10:45:31;5.72;;;4.00;;
26822;SDS011;14852;51.910;8.878;2023-03-12T10:48:17;5.85;;;4.05;;
26822;SDS011;14852;51.910;8.878;2023-03-12T10:51:00;3.80;;;3.40;;
26822;SDS011;14852;51.910;8.878;2023-03-12T10:53:33;6.93;;;3.80;;
26822;SDS011;14852;51.910;8.878;2023-03-12T10:58:40;6.22;;;3.55;;
26822;SDS011;14852;51.910;8.878;2023-03-12T11:01:19;3.88;;;3.47;;
26822;SDS011;14852;51.910;8.878;2023-03-12T11:04:08;3.88;;;3.10;;
26822;SDS011;14852;51.910;8.878;2023-03-12T11:07:06;4.07;;;3.30;;
26822;SDS011;14852;51.910;8.878;2023-03-12T11:09:38;5.50;;;3.75;;
26822;SDS011;14852;51.910;8.878;2023-03-12T11:12:26;4.65;;;3.50;;
26822;SDS011;14852;51.910;8.878;2023-03-12T11:14:53;5.45;;;3.85;;
26822;SDS011;14852;51.910;8.878;2023-03-12T11:17:23;6.68;;;4.13;;
26822;SDS011;14852;51.910;8.878;2023-03-12T11:19:52;3.58;;;3.05;;
26822;SDS011;14852;51.910;8.878;2023-03-12T11:22:29;3.58;;;2.85;;
26822;SDS011;14852;51.910;8.878;2023-03-12T11:25:03;5.35;;;3.45;;
26822;SDS011;14852;51.910;8.878;2023-03-12T11:30:15;3.60;;;2.88;;
26822;SDS011;14852;51.910;8.878;2023-03-12T11:32:46;3.10;;;2.60;;
26822;SDS011;14852;51.910;8.878;2023-03-12T11:35:15;4.13;;;3.63;;
26822;SDS011;14852;51.910;8.878;2023-03-12T11:38:01;3.50;;;3.00;;
26822;SDS011;14852;51.910;8.878;2023-03-12T11:46:48;3.57;;;2.73;;
26822;SDS011;14852;51.910;8.878;2023-03-12T11:49:56;4.43;;;3.67;;
26822;SDS011;14852;51.910;8.878;2023-03-12T11:52:46;3.88;;;3.40;;
26822;SDS011;14852;51.910;8.878;2023-03-12T11:55:40;3.85;;;3.22;;
26822;SDS011;14852;51.910;8.878;2023-03-12T11:58:31;3.45;;;3.13;;
26822;SDS011;14852;51.910;8.878;2023-03-12T12:01:28;3.95;;;2.85;;
26822;SDS011;14852;51.910;8.878;2023-03-12T12:14:13;3.83;;;3.05;;
26822;SDS011;14852;51.910;8.878;2023-03-12T12:17:03;3.30;;;2.80;;
26822;SDS011;14852;51.910;8.878;2023-03-12T12:19:56;2.90;;;2.50;;
26822;SDS011;14852;51.910;8.878;2023-03-12T12:22:45;4.45;;;3.35;;
26822;SDS011;14852;51.910;8.878;2023-03-12T12:26:17;3.75;;;2.20;;
26822;SDS011;14852;51.910;8.878;2023-03-12T12:31:26;3.00;;;2.70;;
26822;SDS011;14852;51.910;8.878;2023-03-12T12:34:14;3.30;;;2.63;;
26822;SDS011;14852;51.910;8.878;2023-03-12T12:36:54;2.45;;;2.03;;
26822;SDS011;14852;51.910;8.878;2023-03-12T12:40:02;3.53;;;2.42;;
26822;SDS011;14852;51.910;8.878;2023-03-12T12:45:16;4.53;;;2.65;;
26822;SDS011;14852;51.910;8.878;2023-03-12T12:47:47;2.47;;;2.08;;
26822;SDS011;14852;51.910;8.878;2023-03-12T12:50:24;5.28;;;2.40;;
26822;SDS011;14852;51.910;8.878;2023-03-12T12:52:59;3.88;;;2.85;;
26822;SDS011;14852;51.910;8.878;2023-03-12T13:01:27;2.78;;;2.38;;
26822;SDS011;14852;51.910;8.878;2023-03-12T13:03:57;3.17;;;2.30;;
26822;SDS011;14852;51.910;8.878;2023-03-12T13:09:52;4.15;;;2.78;;
26822;SDS011;14852;51.910;8.878;2023-03-12T13:14:55;4.63;;;2.58;;
26822;SDS011;14852;51.910;8.878;2023-03-12T13:17:24;3.55;;;2.08;;
26822;SDS011;14852;51.910;8.878;2023-03-12T13:20:21;2.85;;;2.50;;
26822;SDS011;14852;51.910;8.878;2023-03-12T13:26:20;3.03;;;2.15;;
26822;SDS011;14852;51.910;8.878;2023-03-12T13:28:56;2.70;;;2.47;;
26822;SDS011;14852;51.910;8.878;2023-03-12T13:31:37;2.85;;;2.33;;
26822;SDS011;14852;51.910;8.878;2023-03-12T13:36:36;2.88;;;2.50;;
26822;SDS011;14852;51.910;8.878;2023-03-12T13:41:36;4.00;;;2.72;;
26822;SDS011;14852;51.910;8.878;2023-03-12T13:49:24;4.25;;;3.13;;
26822;SDS011;14852;51.910;8.878;2023-03-12T13:51:54;4.10;;;2.22;;
26822;SDS011;14852;51.910;8.878;2023-03-12T13:54:33;3.13;;;2.45;;
26822;SDS011;14852;51.910;8.878;2023-03-12T14:02:58;3.95;;;2.95;;
26822;SDS011;14852;51.910;8.878;2023-03-12T14:05:31;4.75;;;2.83;;
26822;SDS011;14852;51.910;8.878;2023-03-12T14:16:53;3.42;;;2.70;;
26822;SDS011;14852;51.910;8.878;2023-03-12T14:19:28;5.45;;;3.13;;
26822;SDS011;14852;51.910;8.878;2023-03-12T14:22:02;4.32;;;3.08;;
26822;SDS011;14852;51.910;8.878;2023-03-12T14:24:33;6.90;;;3.30;;
26822;SDS011;14852;51.910;8.878;2023-03-12T14:27:31;6.80;;;3.55;;
26822;SDS011;14852;51.910;8.878;2023-03-12T14:32:42;5.65;;;3.78;;
26822;SDS011;14852;51.910;8.878;2023-03-12T14:35:13;5.72;;;3.30;;
26822;SDS011;14852;51.910;8.878;2023-03-12T14:43:49;5.03;;;3.88;;
26822;SDS011;14852;51.910;8.878;2023-03-12T14:46:20;4.70;;;3.25;;
26822;SDS011;14852;51.910;8.878;2023-03-12T14:48:49;4.35;;;3.35;;
26822;SDS011;14852;51.910;8.878;2023-03-12T14:51:21;5.60;;;3.90;;
26822;SDS011;14852;51.910;8.878;2023-03-12T14:53:52;4.85;;;4.22;;
26822;SDS011;14852;51.910;8.878;2023-03-12T14:59:00;4.95;;;4.10;;
26822;SDS011;14852;51.910;8.878;2023-03-12T15:01:44;5.38;;;4.30;;
26822;SDS011;14852;51.910;8.878;2023-03-12T15:04:13;5.60;;;4.25;;
26822;SDS011;14852;51.910;8.878;2023-03-12T15:06:54;5.75;;;3.70;;
26822;SDS011;14852;51.910;8.878;2023-03-12T15:09:27;4.45;;;3.80;;
26822;SDS011;14852;51.910;8.878;2023-03-12T15:11:58;6.20;;;3.92;;
26822;SDS011;14852;51.910;8.878;2023-03-12T15:14:41;4.70;;;3.80;;
26822;SDS011;14852;51.910;8.878;2023-03-12T15:17:07;5.20;;;4.07;;
26822;SDS011;14852;51.910;8.878;2023-03-12T15:19:40;5.70;;;4.90;;
26822;SDS011;14852;51.910;8.878;2023-03-12T15:22:12;6.90;;;4.88;;
26822;SDS011;14852;51.910;8.878;2023-03-12T15:24:45;7.82;;;5.88;;
26822;SDS011;14852;51.910;8.878;2023-03-12T15:27:18;7.68;;;6.20;;
26822;SDS011;14852;51.910;8.878;2023-03-12T15:29:54;7.70;;;5.83;;
26822;SDS011;14852;51.910;8.878;2023-03-12T15:32:22;7.45;;;5.50;;
26822;SDS011;14852;51.910;8.878;2023-03-12T15:34:50;10.55;;;6.70;;
26822;SDS011;14852;51.910;8.878;2023-03-12T15:42:45;9.88;;;7.13;;
26822;SDS011;14852;51.910;8.878;2023-03-12T15:45:16;8.52;;;7.10;;
26822;SDS011;14852;51.910;8.878;2023-03-12T15:47:46;9.93;;;6.40;;
26822;SDS011;14852;51.910;8.878;2023-03-12T15:50:28;8.48;;;6.25;;
26822;SDS011;14852;51.910;8.878;2023-03-12T15:53:05;9.32;;;6.22;;
26822;SDS011;14852;51.910;8.878;2023-03-12T15:55:57;7.95;;;6.60;;
26822;SDS011;14852;51.910;8.878;2023-03-12T15:58:34;8.10;;;6.30;;
26822;SDS011;14852;51.910;8.878;2023-03-12T16:03:38;10.93;;;6.80;;
26822;SDS011;14852;51.910;8.878;2023-03-12T16:06:13;10.95;;;7.32;;
26822;SDS011;14852;51.910;8.878;2023-03-12T16:11:28;9.52;;;7.38;;
26822;SDS011;14852;51.910;8.878;2023-03-12T16:14:01;9.00;;;7.80;;
26822;SDS011;14852;51.910;8.878;2023-03-12T16:16:46;11.35;;;7.28;;
26822;SDS011;14852;51.910;8.878;2023-03-12T16:19:15;12.27;;;8.70;;
26822;SDS011;14852;51.910;8.878;2023-03-12T16:21:44;9.73;;;7.03;;
26822;SDS011;14852;51.910;8.878;2023-03-12T16:24:11;10.77;;;7.55;;
26822;SDS011;14852;51.910;8.878;2023-03-12T16:26:50;12.40;;;8.00;;
26822;SDS011;14852;51.910;8.878;2023-03-12T16:29:20;12.30;;;8.68;;
26822;SDS011;14852;51.910;8.878;2023-03-12T16:31:53;13.82;;;9.32;;
26822;SDS011;14852;51.910;8.878;2023-03-12T16:34:19;15.23;;;8.90;;
26822;SDS011;14852;51.910;8.878;2023-03-12T16:36:45;16.02;;;9.32;;
26822;SDS011;14852;51.910;8.878;2023-03-12T16:39:11;12.43;;;8.68;;
26822;SDS011;14852;51.910;8.878;2023-03-12T16:41:37;16.63;;;9.48;;
26822;SDS011;14852;51.910;8.878;2023-03-12T16:44:04;11.60;;;8.38;;
26822;SDS011;14852;51.910;8.878;2023-03-12T16:46:33;11.27;;;8.77;;
26822;SDS011;14852;51.910;8.878;2023-03-12T16:48:59;11.70;;;8.52;;
26822;SDS011;14852;51.910;8.878;2023-03-12T16:51:25;14.23;;;9.57;;
26822;SDS011;14852;51.910;8.878;2023-03-12T16:53:54;15.68;;;9.98;;
26822;SDS011;14852;51.910;8.878;2023-03-12T16:56:21;12.98;;;7.82;;
26822;SDS011;14852;51.910;8.878;2023-03-12T16:58:50;11.60;;;9.82;;